| time (UTC) | temp F | wind direction | speed MPH | gust MPH | rain 1hr in | rain 24hr in | rain mn in | humidity % | barometer mb |
| 20260901040319 | 80 | 188 | 0.0 | 2.0 | 0.00 | 0.00 | 0.00 | 62 | 1018.3 |
| 20260901035815 | 80 | 188 | 0.0 | 2.0 | 0.00 | 0.00 | 0.00 | 61 | 1018.3 |
| 20260901035350 | 81 | 188 | 0.0 | 2.0 | 0.00 | 0.00 | 0.00 | 61 | 1018.3 |
| 20260901034826 | 81 | 188 | 0.0 | 2.0 | 0.00 | 0.00 | 0.00 | 60 | 1018.3 |
| 20260901034342 | 81 | 201 | 0.0 | 2.0 | 0.00 | 0.00 | 0.00 | 59 | 1018.3 |
| 20260901033837 | 81 | 207 | 1.0 | 2.0 | 0.00 | 0.00 | 0.00 | 59 | 1018.3 |
| 20260901021820 | 79 | 114 | 0.0 | 1.0 | 0.00 | 0.00 | 0.00 | 66 | 1017.4 |
| 20260901021337 | 79 | 114 | 0.0 | 2.0 | 0.00 | 0.00 | 0.00 | 66 | 1017.4 |
| 20260901020812 | 80 | 114 | 0.0 | 2.0 | 0.00 | 0.00 | 0.00 | 65 | 1017.5 |
| 20260901020328 | 79 | 114 | 0.0 | 0.0 | 0.00 | 0.00 | 0.00 | 66 | 1017.4 |
| 20260901015823 | 79 | 114 | 0.0 | 0.0 | 0.00 | 0.00 | 0.00 | 66 | 1017.3 |
| 20260901015339 | 80 | 114 | 0.0 | 0.0 | 0.00 | 0.00 | 0.00 | 65 | 1017.3 |
| 20260901014813 | 80 | 114 | 0.0 | 0.0 | 0.00 | 0.00 | 0.00 | 65 | 1017.2 |
| 20260901014310 | 81 | 114 | 0.0 | 0.0 | 0.00 | 0.00 | 0.00 | 63 | 1017.1 |
| 20260901013810 | 81 | 114 | 0.0 | 0.0 | 0.00 | 0.00 | 0.00 | 63 | 1017.1 |
| 20260901013326 | 82 | 114 | 0.0 | 0.0 | 0.00 | 0.00 | 0.00 | 62 | 1017.0 |
| 20260901012823 | 81 | 114 | 0.0 | 0.0 | 0.00 | 0.00 | 0.00 | 64 | 1017.0 |
| 20260901012319 | 81 | 114 | 0.0 | 0.0 | 0.00 | 0.00 | 0.00 | 64 | 1017.0 |
| 20260901011815 | 81 | 114 | 0.0 | 0.0 | 0.00 | 0.00 | 0.00 | 64 | 1016.9 |
| 20260901011310 | 82 | 114 | 0.0 | 2.0 | 0.00 | 0.00 | 0.00 | 63 | 1016.8 |
| 20260901010828 | 83 | 114 | 0.0 | 2.0 | 0.00 | 0.00 | 0.00 | 61 | 1016.8 |
| 20260901010343 | 83 | 114 | 0.0 | 2.0 | 0.00 | 0.00 | 0.00 | 61 | 1016.7 |
| 20260901005820 | 83 | 114 | 0.0 | 1.0 | 0.00 | 0.00 | 0.00 | 60 | 1016.7 |
| 20260901005337 | 83 | 114 | 0.0 | 2.0 | 0.00 | 0.00 | 0.00 | 61 | 1016.7 |
| 20260901004833 | 85 | 114 | 0.0 | 2.0 | 0.00 | 0.00 | 0.00 | 57 | 1016.6 |
| 20260901004328 | 85 | 114 | 0.0 | 2.0 | 0.00 | 0.00 | 0.00 | 57 | 1016.6 |
| 20260901003845 | 86 | 114 | 0.0 | 2.0 | 0.00 | 0.00 | 0.00 | 56 | 1016.5 |
| 20260901003340 | 87 | 114 | 0.0 | 2.0 | 0.00 | 0.00 | 0.00 | 55 | 1016.5 |
| 20260901002835 | 87 | 114 | 0.0 | 2.0 | 0.00 | 0.00 | 0.00 | 53 | 1016.6 |
| 20260901002310 | 88 | 114 | 0.0 | 2.0 | 0.00 | 0.00 | 0.00 | 52 | 1016.5 |
| 20260901001827 | 89 | 114 | 0.0 | 2.0 | 0.00 | 0.00 | 0.00 | 50 | 1016.5 |
| 20260901001323 | 90 | 114 | 0.0 | 2.0 | 0.00 | 0.00 | 0.00 | 49 | 1016.5 |
| 20260901000840 | 90 | 114 | 0.0 | 2.0 | 0.00 | 0.00 | 0.00 | 49 | 1016.5 |
| 20260901000321 | 91 | 114 | 1.0 | 3.0 | 0.00 | 0.00 | 0.00 | 48 | 1016.5 |
| 20260831235814 | 91 | 115 | 0.0 | 3.0 | 0.00 | 0.00 | 0.00 | 49 | 1016.5 |
| 20260831235310 | 91 | 124 | 0.0 | 3.0 | 0.00 | 0.00 | 0.00 | 48 | 1016.5 |
| 20260831234846 | 91 | 92 | 0.0 | 3.0 | 0.00 | 0.00 | 0.00 | 49 | 1016.5 |
| 20260831234321 | 92 | 95 | 2.0 | 3.0 | 0.00 | 0.00 | 0.00 | 46 | 1016.5 |
| 20260831233818 | 92 | 119 | 1.0 | 3.0 | 0.00 | 0.00 | 0.00 | 46 | 1016.4 |
| 20260831233335 | 93 | 113 | 2.0 | 3.0 | 0.00 | 0.00 | 0.00 | 45 | 1016.4 |
| 20260831232809 | 93 | 97 | 1.0 | 3.0 | 0.00 | 0.00 | 0.00 | 46 | 1016.5 |
| 20260831232310 | 93 | 175 | 1.0 | 2.0 | 0.00 | 0.00 | 0.00 | 45 | 1016.5 |
| 20260831231846 | 94 | 115 | 1.0 | 6.0 | 0.00 | 0.00 | 0.00 | 44 | 1016.5 |
| 20260831231320 | 94 | 100 | 2.0 | 6.0 | 0.00 | 0.00 | 0.00 | 43 | 1016.5 |
| 20260831230816 | 94 | 165 | 2.0 | 6.0 | 0.00 | 0.00 | 0.00 | 43 | 1016.5 |
| 20260831230313 | 95 | 103 | 2.0 | 4.0 | 0.00 | 0.00 | 0.00 | 42 | 1016.5 |
| 20260831225810 | 95 | 105 | 2.0 | 6.0 | 0.00 | 0.00 | 0.00 | 42 | 1016.5 |
| 20260831225326 | 95 | 100 | 2.0 | 6.0 | 0.00 | 0.00 | 0.00 | 42 | 1016.5 |
| 20260831224822 | 95 | 106 | 2.0 | 4.0 | 0.00 | 0.00 | 0.00 | 42 | 1016.5 |
| 20260831224323 | 95 | 92 | 1.0 | 6.0 | 0.00 | 0.00 | 0.00 | 42 | 1016.5 |
| 20260831223818 | 96 | 128 | 2.0 | 6.0 | 0.00 | 0.00 | 0.00 | 42 | 1016.5 |
| 20260831223314 | 96 | 61 | 2.0 | 6.0 | 0.00 | 0.00 | 0.00 | 41 | 1016.5 |
| 20260831222830 | 96 | 107 | 1.0 | 6.0 | 0.00 | 0.00 | 0.00 | 41 | 1016.7 |
| 20260831222345 | 96 | 202 | 2.0 | 8.0 | 0.00 | 0.00 | 0.00 | 38 | 1016.7 |
| 20260831221820 | 95 | 198 | 2.0 | 8.0 | 0.00 | 0.00 | 0.00 | 38 | 1016.7 |
| 20260831221316 | 96 | 207 | 2.0 | 8.0 | 0.00 | 0.00 | 0.00 | 38 | 1016.6 |
| 20260831220812 | 97 | 223 | 3.0 | 8.0 | 0.00 | 0.00 | 0.00 | 38 | 1016.6 |
| 20260831220349 | 97 | 126 | 2.0 | 7.0 | 0.00 | 0.00 | 0.00 | 38 | 1016.7 |
| 20260831215827 | 96 | 100 | 3.0 | 7.0 | 0.00 | 0.00 | 0.00 | 39 | 1016.7 |
| 20260831215323 | 96 | 82 | 1.0 | 8.0 | 0.00 | 0.00 | 0.00 | 37 | 1016.7 |
| 20260831214819 | 97 | 190 | 3.0 | 7.0 | 0.00 | 0.00 | 0.00 | 37 | 1016.7 |
| 20260831214315 | 97 | 109 | 2.0 | 7.0 | 0.00 | 0.00 | 0.00 | 37 | 1016.7 |
| 20260831213811 | 97 | 104 | 2.0 | 6.0 | 0.00 | 0.00 | 0.00 | 37 | 1016.7 |
| 20260831213327 | 97 | 188 | 3.0 | 5.0 | 0.00 | 0.00 | 0.00 | 37 | 1016.7 |
| 20260831212823 | 97 | 219 | 2.0 | 6.0 | 0.00 | 0.00 | 0.00 | 38 | 1016.7 |
| 20260831212324 | 97 | 190 | 2.0 | 6.0 | 0.00 | 0.00 | 0.00 | 37 | 1016.7 |
| 20260831211820 | 97 | 223 | 4.0 | 6.0 | 0.00 | 0.00 | 0.00 | 37 | 1016.7 |
| 20260831211317 | 97 | 83 | 1.0 | 11.0 | 0.00 | 0.00 | 0.00 | 37 | 1016.8 |
| 20260831210814 | 97 | 178 | 4.0 | 11.0 | 0.00 | 0.00 | 0.00 | 37 | 1016.9 |
| 20260831210310 | 97 | 219 | 2.0 | 5.0 | 0.00 | 0.00 | 0.00 | 38 | 1016.9 |
| 20260831205826 | 97 | 148 | 3.0 | 5.0 | 0.00 | 0.00 | 0.00 | 36 | 1017.0 |
| 20260831205322 | 98 | 167 | 2.0 | 5.0 | 0.00 | 0.00 | 0.00 | 37 | 1017.0 |
| 20260831204822 | 97 | 121 | 2.0 | 8.0 | 0.00 | 0.00 | 0.00 | 36 | 1017.1 |
| 20260831204318 | 97 | 137 | 4.0 | 9.0 | 0.00 | 0.00 | 0.00 | 37 | 1017.2 |
| 20260831203814 | 97 | 229 | 2.0 | 9.0 | 0.00 | 0.00 | 0.00 | 37 | 1017.2 |
| 20260831203310 | 97 | 191 | 3.0 | 9.0 | 0.00 | 0.00 | 0.00 | 38 | 1017.3 |
| 20260831202846 | 97 | 100 | 4.0 | 9.0 | 0.00 | 0.00 | 0.00 | 40 | 1017.2 |
| 20260831202322 | 97 | 115 | 3.0 | 7.0 | 0.00 | 0.00 | 0.00 | 37 | 1017.4 |
| 20260831201818 | 97 | 140 | 2.0 | 5.0 | 0.00 | 0.00 | 0.00 | 37 | 1017.4 |
| 20260831201313 | 97 | 72 | 2.0 | 5.0 | 0.00 | 0.00 | 0.00 | 38 | 1017.4 |
| 20260831200835 | 97 | 103 | 2.0 | 7.0 | 0.00 | 0.00 | 0.00 | 37 | 1017.5 |
| 20260831200328 | 97 | 124 | 3.0 | 8.0 | 0.00 | 0.00 | 0.00 | 38 | 1017.6 |
| 20260831195823 | 97 | 114 | 3.0 | 8.0 | 0.00 | 0.00 | 0.00 | 38 | 1017.7 |
| 20260831195319 | 97 | 108 | 2.0 | 7.0 | 0.00 | 0.00 | 0.00 | 36 | 1017.7 |
| 20260831194814 | 96 | 181 | 2.0 | 7.0 | 0.00 | 0.00 | 0.00 | 36 | 1017.8 |
| 20260831194311 | 96 | 184 | 1.0 | 7.0 | 0.00 | 0.00 | 0.00 | 36 | 1017.8 |
| 20260831193847 | 96 | 254 | 3.0 | 11.0 | 0.00 | 0.00 | 0.00 | 35 | 1017.8 |
| 20260831193322 | 97 | 198 | 4.0 | 8.0 | 0.00 | 0.00 | 0.00 | 36 | 1017.9 |
| 20260831192819 | 97 | 117 | 4.0 | 8.0 | 0.00 | 0.00 | 0.00 | 36 | 1017.9 |
| 20260831192339 | 96 | 134 | 2.0 | 10.0 | 0.00 | 0.00 | 0.00 | 40 | 1017.9 |
| 20260831191815 | 97 | 129 | 3.0 | 10.0 | 0.00 | 0.00 | 0.00 | 40 | 1018.0 |
| 20260831191312 | 96 | 94 | 2.0 | 6.0 | 0.00 | 0.00 | 0.00 | 38 | 1018.0 |
| 20260831190828 | 97 | 253 | 4.0 | 8.0 | 0.00 | 0.00 | 0.00 | 38 | 1018.1 |
| 20260831190324 | 96 | 167 | 3.0 | 7.0 | 0.00 | 0.00 | 0.00 | 38 | 1018.0 |
| 20260831185820 | 97 | 134 | 4.0 | 7.0 | 0.00 | 0.00 | 0.00 | 40 | 1018.1 |
| 20260831185315 | 97 | 259 | 3.0 | 7.0 | 0.00 | 0.00 | 0.00 | 37 | 1018.2 |
| 20260831184811 | 96 | 92 | 3.0 | 7.0 | 0.00 | 0.00 | 0.00 | 39 | 1018.3 |
| 20260831184332 | 96 | 94 | 1.0 | 5.0 | 0.00 | 0.00 | 0.00 | 41 | 1018.3 |
| 20260831183827 | 94 | 223 | 1.0 | 8.0 | 0.00 | 0.00 | 0.00 | 42 | 1018.5 |
| 20260831183321 | 96 | 240 | 4.0 | 8.0 | 0.00 | 0.00 | 0.00 | 38 | 1018.5 |
| 20260831182818 | 96 | 226 | 3.0 | 6.0 | 0.00 | 0.00 | 0.00 | 41 | 1018.5 |
| 20260831182314 | 95 | 258 | 2.0 | 8.0 | 0.00 | 0.00 | 0.00 | 40 | 1018.6 |
| 20260831181811 | 94 | 217 | 1.0 | 6.0 | 0.00 | 0.00 | 0.00 | 44 | 1018.6 |
| 20260831181329 | 94 | 232 | 2.0 | 6.0 | 0.00 | 0.00 | 0.00 | 42 | 1018.6 |
| 20260831180824 | 95 | 272 | 1.0 | 4.0 | 0.00 | 0.00 | 0.00 | 40 | 1018.7 |
| 20260831180324 | 94 | 209 | 2.0 | 5.0 | 0.00 | 0.00 | 0.00 | 40 | 1018.8 |
| 20260831175821 | 94 | 177 | 1.0 | 9.0 | 0.00 | 0.00 | 0.00 | 42 | 1018.9 |
| 20260831175317 | 94 | 275 | 3.0 | 9.0 | 0.00 | 0.00 | 0.00 | 47 | 1019.0 |
| 20260831174815 | 94 | 255 | 2.0 | 9.0 | 0.00 | 0.00 | 0.00 | 46 | 1019.0 |
| 20260831174312 | 94 | 217 | 5.0 | 9.0 | 0.00 | 0.00 | 0.00 | 47 | 1019.0 |
| 20260831173828 | 94 | 213 | 2.0 | 5.0 | 0.00 | 0.00 | 0.00 | 47 | 1019.0 |
| 20260831173322 | 94 | 261 | 3.0 | 7.0 | 0.00 | 0.00 | 0.00 | 48 | 1019.1 |
| 20260831172819 | 93 | 242 | 3.0 | 8.0 | 0.00 | 0.00 | 0.00 | 48 | 1019.2 |
| 20260831172319 | 93 | 267 | 3.0 | 8.0 | 0.00 | 0.00 | 0.00 | 47 | 1019.3 |
| 20260831171814 | 93 | 244 | 2.0 | 7.0 | 0.00 | 0.00 | 0.00 | 49 | 1019.4 |
| 20260831171311 | 92 | 235 | 2.0 | 4.0 | 0.00 | 0.00 | 0.00 | 50 | 1019.4 |
| 20260831170827 | 92 | 241 | 1.0 | 8.0 | 0.00 | 0.00 | 0.00 | 50 | 1019.4 |
| 20260831170323 | 92 | 236 | 3.0 | 8.0 | 0.00 | 0.00 | 0.00 | 52 | 1019.5 |
| 20260831165839 | 91 | 242 | 2.0 | 7.0 | 0.00 | 0.00 | 0.00 | 50 | 1019.5 |
| 20260831165315 | 92 | 162 | 1.0 | 5.0 | 0.00 | 0.00 | 0.00 | 51 | 1019.6 |
| 20260831164831 | 91 | 182 | 3.0 | 9.0 | 0.00 | 0.00 | 0.00 | 51 | 1019.7 |
| 20260831164311 | 90 | 275 | 5.0 | 9.0 | 0.00 | 0.00 | 0.00 | 51 | 1019.7 |
| 20260831163828 | 90 | 240 | 3.0 | 10.0 | 0.00 | 0.00 | 0.00 | 54 | 1019.8 |
| 20260831163324 | 90 | 232 | 5.0 | 10.0 | 0.00 | 0.00 | 0.00 | 51 | 1019.8 |
| 20260831162820 | 90 | 253 | 2.0 | 8.0 | 0.00 | 0.00 | 0.00 | 54 | 1019.8 |
| 20260831162316 | 89 | 223 | 3.0 | 7.0 | 0.00 | 0.00 | 0.00 | 53 | 1019.8 |
| 20260831161813 | 89 | 243 | 3.0 | 7.0 | 0.00 | 0.00 | 0.00 | 53 | 1019.8 |
| 20260831161310 | 89 | 214 | 2.0 | 7.0 | 0.00 | 0.00 | 0.00 | 54 | 1019.7 |
| 20260831160811 | 89 | 238 | 2.0 | 9.0 | 0.00 | 0.00 | 0.00 | 54 | 1019.8 |
| 20260831160328 | 88 | 240 | 3.0 | 9.0 | 0.00 | 0.00 | 0.00 | 54 | 1019.8 |
| 20260831155824 | 88 | 247 | 6.0 | 9.0 | 0.00 | 0.00 | 0.00 | 54 | 1019.8 |
| 20260831155320 | 88 | 257 | 4.0 | 9.0 | 0.00 | 0.00 | 0.00 | 54 | 1019.7 |
| 20260831154836 | 87 | 207 | 3.0 | 10.0 | 0.00 | 0.00 | 0.00 | 57 | 1019.8 |
| 20260831154311 | 87 | 271 | 4.0 | 10.0 | 0.00 | 0.00 | 0.00 | 55 | 1019.8 |
| 20260831153827 | 87 | 218 | 4.0 | 9.0 | 0.00 | 0.00 | 0.00 | 58 | 1019.7 |
| 20260831153323 | 86 | 225 | 4.0 | 9.0 | 0.00 | 0.00 | 0.00 | 57 | 1019.8 |
| 20260831152822 | 86 | 197 | 3.0 | 8.0 | 0.00 | 0.00 | 0.00 | 59 | 1019.8 |
| 20260831152319 | 86 | 250 | 4.0 | 8.0 | 0.00 | 0.00 | 0.00 | 58 | 1019.9 |
| 20260831151815 | 86 | 241 | 4.0 | 8.0 | 0.00 | 0.00 | 0.00 | 58 | 1019.8 |
| 20260831151311 | 85 | 238 | 4.0 | 7.0 | 0.00 | 0.00 | 0.00 | 58 | 1019.8 |
| 20260831150826 | 85 | 254 | 3.0 | 9.0 | 0.00 | 0.00 | 0.00 | 59 | 1019.8 |
| 20260831150342 | 85 | 229 | 4.0 | 9.0 | 0.00 | 0.00 | 0.00 | 59 | 1019.9 |
| 20260831145815 | 84 | 227 | 3.0 | 7.0 | 0.00 | 0.00 | 0.00 | 60 | 1019.8 |
| 20260831145312 | 84 | 218 | 2.0 | 8.0 | 0.00 | 0.00 | 0.00 | 61 | 1019.8 |
| 20260831144813 | 83 | 264 | 5.0 | 8.0 | 0.00 | 0.00 | 0.00 | 61 | 1019.8 |
| 20260831144329 | 83 | 265 | 3.0 | 6.0 | 0.00 | 0.00 | 0.00 | 61 | 1019.7 |
| 20260831143825 | 83 | 223 | 3.0 | 5.0 | 0.00 | 0.00 | 0.00 | 62 | 1019.6 |
| 20260831143341 | 82 | 110 | 2.0 | 8.0 | 0.00 | 0.00 | 0.00 | 63 | 1019.6 |
| 20260831142816 | 82 | 250 | 2.0 | 5.0 | 0.00 | 0.00 | 0.00 | 63 | 1019.6 |
| 20260831142312 | 81 | 180 | 2.0 | 4.0 | 0.00 | 0.00 | 0.00 | 63 | 1019.6 |
| 20260831141809 | 81 | 190 | 1.0 | 4.0 | 0.00 | 0.00 | 0.00 | 65 | 1019.6 |
| 20260831141309 | 80 | 217 | 2.0 | 3.0 | 0.00 | 0.00 | 0.00 | 65 | 1019.7 |
| 20260831140826 | 80 | 212 | 2.0 | 4.0 | 0.00 | 0.00 | 0.00 | 67 | 1019.7 |
| 20260831140321 | 79 | 207 | 2.0 | 5.0 | 0.00 | 0.00 | 0.00 | 65 | 1019.7 |
| 20260831135817 | 79 | 217 | 3.0 | 5.0 | 0.00 | 0.00 | 0.00 | 66 | 1019.7 |
| 20260831135312 | 79 | 243 | 2.0 | 3.0 | 0.00 | 0.00 | 0.00 | 67 | 1019.7 |
| 20260831134827 | 78 | 213 | 1.0 | 4.0 | 0.00 | 0.00 | 0.00 | 68 | 1019.7 |
| 20260831134324 | 78 | 146 | 1.0 | 3.0 | 0.00 | 0.00 | 0.00 | 68 | 1019.7 |
| 20260831133820 | 77 | 179 | 1.0 | 3.0 | 0.00 | 0.00 | 0.00 | 68 | 1019.7 |
| 20260831133320 | 77 | 180 | 1.0 | 4.0 | 0.00 | 0.00 | 0.00 | 68 | 1019.6 |
| 20260831132837 | 76 | 234 | 1.0 | 4.0 | 0.00 | 0.00 | 0.00 | 69 | 1019.6 |
| 20260831132311 | 76 | 207 | 1.0 | 4.0 | 0.00 | 0.00 | 0.00 | 70 | 1019.5 |
| 20260831131827 | 75 | 132 | 1.0 | 3.0 | 0.00 | 0.00 | 0.00 | 70 | 1019.5 |
| 20260831131325 | 75 | 105 | 0.0 | 2.0 | 0.00 | 0.00 | 0.00 | 72 | 1019.5 |
| 20260831130821 | 74 | 105 | 0.0 | 2.0 | 0.00 | 0.00 | 0.00 | 73 | 1019.4 |
| 20260831130317 | 73 | 104 | 0.0 | 2.0 | 0.00 | 0.00 | 0.00 | 75 | 1019.3 |
| 20260831125833 | 72 | 103 | 0.0 | 0.0 | 0.00 | 0.00 | 0.00 | 77 | 1019.3 |
| 20260831125348 | 71 | 103 | 0.0 | 2.0 | 0.00 | 0.00 | 0.00 | 78 | 1019.1 |
| 20260831124827 | 70 | 103 | 0.0 | 2.0 | 0.00 | 0.00 | 0.00 | 79 | 1019.0 |
| 20260831124323 | 70 | 103 | 0.0 | 2.0 | 0.00 | 0.00 | 0.00 | 80 | 1019.0 |
| 20260831123818 | 69 | 103 | 0.0 | 0.0 | 0.00 | 0.00 | 0.00 | 81 | 1018.9 |
| 20260831123314 | 69 | 103 | 0.0 | 2.0 | 0.00 | 0.00 | 0.00 | 82 | 1018.9 |
| 20260831122830 | 69 | 103 | 0.0 | 0.0 | 0.00 | 0.00 | 0.00 | 82 | 1018.9 |
| 20260831122347 | 68 | 103 | 0.0 | 0.0 | 0.00 | 0.00 | 0.00 | 82 | 1018.9 |
| 20260831121822 | 68 | 103 | 0.0 | 0.0 | 0.00 | 0.00 | 0.00 | 82 | 1018.8 |
| 20260831121318 | 68 | 103 | 0.0 | 0.0 | 0.00 | 0.00 | 0.00 | 82 | 1018.7 |
| 20260831120818 | 67 | 103 | 0.0 | 0.0 | 0.00 | 0.00 | 0.00 | 82 | 1018.6 |
| 20260831120314 | 67 | 103 | 0.0 | 0.0 | 0.00 | 0.00 | 0.00 | 81 | 1018.5 |
| 20260831115829 | 68 | 103 | 0.0 | 0.0 | 0.00 | 0.00 | 0.00 | 80 | 1018.4 |
| 20260831115325 | 68 | 103 | 0.0 | 0.0 | 0.00 | 0.00 | 0.00 | 79 | 1018.3 |
| 20260831114821 | 69 | 103 | 0.0 | 2.0 | 0.00 | 0.00 | 0.00 | 79 | 1018.3 |
| 20260831114337 | 69 | 103 | 0.0 | 2.0 | 0.00 | 0.00 | 0.00 | 77 | 1018.2 |
| 20260831113834 | 69 | 103 | 1.0 | 2.0 | 0.00 | 0.00 | 0.00 | 77 | 1018.1 |
| 20260831113329 | 69 | 103 | 0.0 | 2.0 | 0.00 | 0.00 | 0.00 | 78 | 1018.1 |
| 20260831112824 | 69 | 103 | 0.0 | 2.0 | 0.00 | 0.00 | 0.00 | 78 | 1018.0 |
| 20260831112323 | 68 | 103 | 0.0 | 1.0 | 0.00 | 0.00 | 0.00 | 79 | 1018.0 |
| 20260831111819 | 68 | 103 | 0.0 | 2.0 | 0.00 | 0.00 | 0.00 | 79 | 1018.0 |
| 20260831111336 | 68 | 103 | 0.0 | 2.0 | 0.00 | 0.00 | 0.00 | 79 | 1018.0 |
| 20260831110832 | 68 | 103 | 0.0 | 0.0 | 0.00 | 0.00 | 0.00 | 80 | 1017.9 |
| 20260831110327 | 68 | 103 | 0.0 | 0.0 | 0.00 | 0.00 | 0.00 | 79 | 1017.9 |
| 20260831105822 | 69 | 103 | 0.0 | 0.0 | 0.00 | 0.00 | 0.00 | 78 | 1017.8 |
| 20260831105317 | 69 | 103 | 0.0 | 0.0 | 0.00 | 0.00 | 0.00 | 77 | 1017.8 |
| 20260831104813 | 70 | 103 | 0.0 | 2.0 | 0.00 | 0.00 | 0.00 | 76 | 1017.7 |
| 20260831104314 | 70 | 103 | 0.0 | 2.0 | 0.00 | 0.00 | 0.00 | 76 | 1017.7 |
| 20260831103810 | 70 | 103 | 0.0 | 2.0 | 0.00 | 0.00 | 0.00 | 76 | 1017.7 |
| 20260831103326 | 70 | 103 | 0.0 | 2.0 | 0.00 | 0.00 | 0.00 | 76 | 1017.7 |
| 20260831102823 | 70 | 103 | 0.0 | 2.0 | 0.00 | 0.00 | 0.00 | 76 | 1017.8 |
| 20260831102319 | 70 | 103 | 0.0 | 2.0 | 0.00 | 0.00 | 0.00 | 76 | 1017.8 |
| 20260831101814 | 70 | 103 | 0.0 | 2.0 | 0.00 | 0.00 | 0.00 | 75 | 1017.8 |
| 20260831101331 | 70 | 103 | 0.0 | 1.0 | 0.00 | 0.00 | 0.00 | 75 | 1017.7 |
| 20260831100826 | 70 | 103 | 0.0 | 2.0 | 0.00 | 0.00 | 0.00 | 75 | 1017.7 |
| 20260831100322 | 70 | 103 | 0.0 | 2.0 | 0.00 | 0.00 | 0.00 | 75 | 1017.7 |
| 20260831095822 | 70 | 103 | 0.0 | 2.0 | 0.00 | 0.00 | 0.00 | 75 | 1017.7 |
| 20260831095318 | 70 | 103 | 0.0 | 2.0 | 0.00 | 0.00 | 0.00 | 75 | 1017.7 |
| 20260831094815 | 70 | 162 | 0.0 | 2.0 | 0.00 | 0.00 | 0.00 | 75 | 1017.7 |
| 20260831094310 | 70 | 162 | 0.0 | 2.0 | 0.00 | 0.00 | 0.00 | 75 | 1017.8 |
| 20260831093825 | 71 | 136 | 0.0 | 2.0 | 0.00 | 0.00 | 0.00 | 74 | 1017.7 |
| 20260831093321 | 71 | 137 | 0.0 | 2.0 | 0.00 | 0.00 | 0.00 | 74 | 1017.7 |
| 20260831092837 | 71 | 136 | 0.0 | 2.0 | 0.00 | 0.00 | 0.00 | 74 | 1017.7 |
| 20260831092311 | 71 | 136 | 0.0 | 2.0 | 0.00 | 0.00 | 0.00 | 74 | 1017.7 |
| 20260831091812 | 71 | 182 | 0.0 | 2.0 | 0.00 | 0.00 | 0.00 | 73 | 1017.8 |
| 20260831091328 | 71 | 182 | 0.0 | 2.0 | 0.00 | 0.00 | 0.00 | 73 | 1017.7 |
| 20260831090822 | 71 | 182 | 0.0 | 0.0 | 0.00 | 0.00 | 0.00 | 73 | 1017.7 |
| 20260831090319 | 72 | 182 | 0.0 | 1.0 | 0.00 | 0.00 | 0.00 | 73 | 1017.8 |
| 20260831085834 | 72 | 182 | 0.0 | 2.0 | 0.00 | 0.00 | 0.00 | 72 | 1017.9 |
| 20260831085309 | 72 | 184 | 0.0 | 2.0 | 0.00 | 0.00 | 0.00 | 71 | 1017.7 |
| 20260831084844 | 72 | 184 | 0.0 | 2.0 | 0.00 | 0.00 | 0.00 | 71 | 1017.7 |
| 20260831084320 | 72 | 153 | 0.0 | 2.0 | 0.00 | 0.00 | 0.00 | 71 | 1017.7 |
| 20260831083816 | 72 | 164 | 0.0 | 2.0 | 0.00 | 0.00 | 0.00 | 71 | 1017.7 |
| 20260831083316 | 73 | 126 | 1.0 | 2.0 | 0.00 | 0.00 | 0.00 | 71 | 1017.6 |
| 20260831082813 | 73 | 90 | 1.0 | 2.0 | 0.00 | 0.00 | 0.00 | 70 | 1017.6 |
| 20260831082329 | 73 | 78 | 1.0 | 2.0 | 0.00 | 0.00 | 0.00 | 70 | 1017.6 |
| 20260831081825 | 73 | 205 | 0.0 | 2.0 | 0.00 | 0.00 | 0.00 | 70 | 1017.5 |
| 20260831081341 | 73 | 133 | 0.0 | 2.0 | 0.00 | 0.00 | 0.00 | 70 | 1017.4 |
| 20260831080816 | 73 | 123 | 0.0 | 2.0 | 0.00 | 0.00 | 0.00 | 70 | 1017.3 |
| 20260831080332 | 73 | 98 | 1.0 | 2.0 | 0.00 | 0.00 | 0.00 | 70 | 1017.3 |
| 20260831075847 | 73 | 207 | 0.0 | 3.0 | 0.00 | 0.00 | 0.00 | 70 | 1017.3 |
| 20260831075322 | 73 | 117 | 0.0 | 2.0 | 0.00 | 0.00 | 0.00 | 70 | 1017.2 |
| 20260831074839 | 74 | 142 | 0.0 | 2.0 | 0.00 | 0.00 | 0.00 | 70 | 1017.3 |
| 20260831074319 | 74 | 132 | 0.0 | 2.0 | 0.00 | 0.00 | 0.00 | 69 | 1017.3 |
| 20260831073814 | 74 | 119 | 0.0 | 2.0 | 0.00 | 0.00 | 0.00 | 69 | 1017.3 |
| 20260831073310 | 74 | 138 | 0.0 | 2.0 | 0.00 | 0.00 | 0.00 | 69 | 1017.4 |
| 20260831072827 | 74 | 165 | 0.0 | 3.0 | 0.00 | 0.00 | 0.00 | 69 | 1017.4 |
| 20260831072324 | 74 | 147 | 1.0 | 3.0 | 0.00 | 0.00 | 0.00 | 69 | 1017.3 |
| 20260831071820 | 74 | 140 | 0.0 | 2.0 | 0.00 | 0.00 | 0.00 | 69 | 1017.3 |
| 20260831071316 | 74 | 139 | 1.0 | 2.0 | 0.00 | 0.00 | 0.00 | 69 | 1017.4 |
| 20260831070835 | 74 | 111 | 1.0 | 2.0 | 0.00 | 0.00 | 0.00 | 69 | 1017.4 |
| 20260831070311 | 74 | 129 | 1.0 | 2.0 | 0.00 | 0.00 | 0.00 | 69 | 1017.4 |
| 20260831065827 | 74 | 183 | 1.0 | 2.0 | 0.00 | 0.00 | 0.00 | 69 | 1017.5 |
| 20260831065323 | 74 | 132 | 0.0 | 2.0 | 0.00 | 0.00 | 0.00 | 69 | 1017.6 |
| 20260831064840 | 75 | 149 | 0.0 | 2.0 | 0.00 | 0.00 | 0.00 | 68 | 1017.6 |
| 20260831064335 | 75 | 143 | 0.0 | 2.0 | 0.00 | 0.00 | 0.00 | 68 | 1017.7 |
| 20260831063810 | 75 | 143 | 1.0 | 4.0 | 0.00 | 0.00 | 0.00 | 68 | 1017.6 |
| 20260831063326 | 75 | 119 | 1.0 | 4.0 | 0.00 | 0.00 | 0.00 | 67 | 1017.6 |
| 20260831062822 | 75 | 123 | 1.0 | 2.0 | 0.00 | 0.00 | 0.00 | 67 | 1017.6 |
| 20260831062343 | 76 | 178 | 0.0 | 2.0 | 0.00 | 0.00 | 0.00 | 67 | 1017.6 |
| 20260831061819 | 76 | 163 | 0.0 | 2.0 | 0.00 | 0.00 | 0.00 | 67 | 1017.6 |
| 20260831061315 | 76 | 171 | 0.0 | 2.0 | 0.00 | 0.00 | 0.00 | 67 | 1017.6 |
| 20260831060810 | 76 | 214 | 0.0 | 2.0 | 0.00 | 0.00 | 0.00 | 67 | 1017.7 |
| 20260831060346 | 76 | 231 | 0.0 | 2.0 | 0.00 | 0.00 | 0.00 | 67 | 1017.7 |
| 20260831055821 | 76 | 131 | 0.0 | 2.0 | 0.00 | 0.00 | 0.00 | 66 | 1017.7 |
| 20260831055317 | 76 | 164 | 1.0 | 4.0 | 0.00 | 0.00 | 0.00 | 66 | 1017.6 |
| 20260831054833 | 77 | 98 | 1.0 | 4.0 | 0.00 | 0.00 | 0.00 | 65 | 1017.7 |
| 20260831054313 | 77 | 146 | 1.0 | 3.0 | 0.00 | 0.00 | 0.00 | 65 | 1017.7 |
| 20260831053828 | 77 | 181 | 1.0 | 3.0 | 0.00 | 0.00 | 0.00 | 64 | 1017.6 |
| 20260831053322 | 77 | 231 | 1.0 | 2.0 | 0.00 | 0.00 | 0.00 | 64 | 1017.7 |
| 20260831052838 | 77 | 182 | 0.0 | 2.0 | 0.00 | 0.00 | 0.00 | 64 | 1017.7 |
| 20260831052313 | 77 | 204 | 0.0 | 2.0 | 0.00 | 0.00 | 0.00 | 64 | 1017.6 |
| 20260831051809 | 78 | 227 | 1.0 | 2.0 | 0.00 | 0.00 | 0.00 | 63 | 1017.5 |
| 20260831051325 | 78 | 201 | 1.0 | 3.0 | 0.00 | 0.00 | 0.00 | 63 | 1017.6 |
| 20260831050821 | 78 | 250 | 1.0 | 7.0 | 0.00 | 0.00 | 0.00 | 62 | 1017.4 |
| 20260831050321 | 78 | 234 | 2.0 | 7.0 | 0.00 | 0.00 | 0.00 | 62 | 1017.4 |
| 20260831045816 | 78 | 106 | 1.0 | 7.0 | 0.00 | 0.00 | 0.00 | 62 | 1017.3 |
| 20260831045312 | 78 | 38 | 2.0 | 7.0 | 0.00 | 0.00 | 0.00 | 62 | 1017.3 |
| 20260831044809 | 79 | 200 | 1.0 | 4.0 | 0.00 | 0.00 | 0.00 | 62 | 1017.2 |
| 20260831044347 | 79 | 197 | 1.0 | 4.0 | 0.00 | 0.00 | 0.00 | 62 | 1017.2 |
| 20260831043822 | 79 | 219 | 1.0 | 2.0 | 0.00 | 0.00 | 0.00 | 62 | 1017.1 |
| 20260831043317 | 79 | 223 | 1.0 | 3.0 | 0.00 | 0.00 | 0.00 | 62 | 1017.1 |
| 20260831042812 | 79 | 201 | 1.0 | 5.0 | 0.00 | 0.00 | 0.00 | 62 | 1016.9 |
| 20260831042312 | 79 | 132 | 1.0 | 5.0 | 0.00 | 0.00 | 0.00 | 62 | 1016.9 |
| 20260831041809 | 79 | 182 | 1.0 | 3.0 | 0.00 | 0.00 | 0.00 | 61 | 1016.9 |
| 20260831041346 | 79 | 184 | 1.0 | 4.0 | 0.00 | 0.00 | 0.00 | 61 | 1016.9 |
| 20260831040822 | 79 | 202 | 1.0 | 4.0 | 0.00 | 0.00 | 0.00 | 61 | 1016.8 |